Time;durP1;ratioP1;P1;durP2;ratioP2;P2;SDS_P1;SDS_P2;PMS_P1;PMS_P2;Temp;Humidity;BMP_temperature;BMP_pressure;BME280_temperature;BME280_humidity;BME280_pressure;Samples;Min_cycle;Max_cycle;Signal;HPM_P1;HPM_P2
2022/10/29 00:01:52;;;;;;;16.83;6.43;;;13.30;99.90;;;;;;5062066;28;20122;-58
2022/10/29 00:04:18;;;;;;;19.95;6.28;;;13.30;99.90;;;;;;5044998;28;20135;-57
2022/10/29 00:06:43;;;;;;;15.20;5.43;;;13.30;99.90;;;;;;5045328;28;20433;-58
2022/10/29 00:09:09;;;;;;;18.73;5.97;;;13.20;99.90;;;;;;5061440;28;20409;-57
2022/10/29 00:11:35;;;;;;;13.20;5.80;;;13.20;99.90;;;;;;5060579;28;20040;-59
2022/10/29 00:14:01;;;;;;;19.35;5.82;;;13.20;99.90;;;;;;5063019;28;20041;-59
2022/10/29 00:16:33;;;;;;;17.90;5.40;;;13.20;99.90;;;;;;5059271;28;20045;-59
2022/10/29 00:18:58;;;;;;;12.52;5.13;;;13.20;99.90;;;;;;5040869;28;20102;-57
2022/10/29 00:21:25;;;;;;;17.77;5.25;;;13.20;99.90;;;;;;5061427;28;20048;-57
2022/10/29 00:23:51;;;;;;;15.70;5.47;;;13.10;99.90;;;;;;5065103;28;20062;-59
2022/10/29 00:26:19;;;;;;;15.82;5.32;;;13.20;99.90;;;;;;5062785;28;20492;-57
2022/10/29 00:28:45;;;;;;;;;;;13.20;99.90;;;;;;5062126;28;20464;-58
2022/10/29 00:31:17;;;;;;;18.55;4.82;;;13.20;99.90;;;;;;5062649;28;19928;-57
2022/10/29 00:33:43;;;;;;;15.68;5.28;;;13.20;99.90;;;;;;5063198;28;20045;-58
2022/10/29 00:36:11;;;;;;;16.80;5.45;;;13.20;99.90;;;;;;5063660;28;20044;-58
2022/10/29 00:38:38;;;;;;;17.80;5.43;;;13.20;99.90;;;;;;5062317;28;20052;-58
2022/10/29 00:41:05;;;;;;;18.25;5.07;;;13.20;99.90;;;;;;5061384;28;20086;-56
2022/10/29 00:43:32;;;;;;;;;;;13.20;99.90;;;;;;5058688;28;20055;-57
2022/10/29 00:46:08;;;;;;;20.95;5.00;;;13.20;99.90;;;;;;5060301;28;19924;-59
2022/10/29 00:48:39;;;;;;;20.90;5.57;;;13.20;99.90;;;;;;5044503;28;20047;-58
2022/10/29 00:51:07;;;;;;;17.48;5.13;;;13.10;99.90;;;;;;5042457;28;20045;-59
2022/10/29 00:53:36;;;;;;;18.92;5.88;;;13.10;99.90;;;;;;5059306;28;20067;-59
2022/10/29 00:56:02;;;;;;;17.67;5.70;;;13.10;99.90;;;;;;5062518;28;20044;-57
2022/10/29 00:58:28;;;;;;;20.27;5.68;;;13.00;99.90;;;;;;5062349;28;20555;-58
2022/10/29 01:00:54;;;;;;;13.82;5.13;;;13.00;99.90;;;;;;5061133;28;20139;-58
2022/10/29 01:03:19;;;;;;;20.27;5.78;;;12.90;99.90;;;;;;5044678;28;20052;-59
2022/10/29 01:05:46;;;;;;;16.85;5.85;;;12.90;99.90;;;;;;5061276;28;20646;-57
2022/10/29 01:08:14;;;;;;;16.17;5.53;;;13.00;99.90;;;;;;5067806;28;20037;-57
2022/10/29 01:11:07;;;;;;;13.98;5.45;;;12.80;99.90;;;;;;5063613;28;20037;-57
2022/10/29 01:13:59;;;;;;;17.20;6.43;;;12.80;99.90;;;;;;5062070;28;20052;-59
2022/10/29 01:16:33;;;;;;;19.27;7.25;;;12.70;99.90;;;;;;5059192;28;20051;-59
2022/10/29 01:19:14;;;;;;;21.90;7.90;;;12.70;99.90;;;;;;5061257;28;20091;-59
2022/10/29 01:21:41;;;;;;;19.13;7.05;;;12.70;99.90;;;;;;5058076;28;20052;-57
2022/10/29 01:24:44;;;;;;;16.35;7.07;;;12.60;99.90;;;;;;5060215;28;20155;-59
2022/10/29 01:27:33;;;;;;;17.63;6.72;;;12.60;99.90;;;;;;5061920;28;20040;-59
2022/10/29 01:30:08;;;;;;;12.35;6.65;;;12.60;99.90;;;;;;5048699;28;20135;-58
2022/10/29 01:33:16;;;;;;;18.58;6.93;;;12.50;99.90;;;;;;5058659;28;20090;-59
2022/10/29 01:36:13;;;;;;;19.92;7.95;;;12.50;99.90;;;;;;5061617;28;20093;-59
2022/10/29 01:38:57;;;;;;;20.83;8.50;;;12.40;99.90;;;;;;5058916;28;20045;-58
2022/10/29 01:41:50;;;;;;;21.25;9.45;;;12.40;99.90;;;;;;5062372;28;20208;-55
2022/10/29 01:44:24;;;;;;;19.20;8.85;;;12.50;99.90;;;;;;5062435;28;20052;-57
2022/10/29 01:47:02;;;;;;;20.48;8.48;;;12.40;99.90;;;;;;5060947;28;20057;-58
2022/10/29 01:49:32;;;;;;;;;;;12.40;99.90;;;;;;5061022;28;20052;-57
2022/10/29 01:52:00;;;;;;;22.45;9.18;;;12.50;99.90;;;;;;5057757;28;19973;-57
2022/10/29 01:54:26;;;;;;;21.77;10.18;;;12.50;99.90;;;;;;5059265;28;21080;-57
2022/10/29 01:56:56;;;;;;;23.67;9.60;;;12.40;99.90;;;;;;5061342;28;20037;-58
2022/10/29 01:59:25;;;;;;;22.83;10.57;;;12.40;99.90;;;;;;5060910;28;20511;-58
2022/10/29 02:02:13;;;;;;;21.45;10.52;;;12.30;99.90;;;;;;5059911;28;20060;-55
2022/10/29 02:05:03;;;;;;;26.63;10.27;;;12.30;99.90;;;;;;5059516;28;21286;-58
2022/10/29 02:07:58;;;;;;;17.17;10.38;;;12.30;99.90;;;;;;5060286;28;20422;-57
2022/10/29 02:10:32;;;;;;;19.13;9.75;;;12.30;99.90;;;;;;5060135;28;20048;-58
2022/10/29 02:12:59;;;;;;;21.17;9.27;;;12.20;99.90;;;;;;5059296;28;20406;-58
2022/10/29 02:15:35;;;;;;;17.50;9.07;;;12.20;99.90;;;;;;5065727;28;20043;-57
2022/10/29 02:18:03;;;;;;;20.33;9.43;;;12.10;99.90;;;;;;5060220;28;20397;-57
2022/10/29 02:20:29;;;;;;;21.05;9.00;;;12.10;99.90;;;;;;5061257;28;20043;-58
2022/10/29 02:22:55;;;;;;;23.20;9.18;;;12.20;99.90;;;;;;5056978;28;20494;-58
2022/10/29 02:25:20;;;;;;;27.38;10.57;;;12.20;99.90;;;;;;5059173;28;20092;-59
2022/10/29 02:27:46;;;;;;;24.90;9.63;;;12.20;99.90;;;;;;5057425;28;20068;-59
2022/10/29 02:30:12;;;;;;;26.05;11.13;;;12.20;99.90;;;;;;5062218;28;20748;-59
2022/10/29 02:32:37;;;;;;;30.85;10.93;;;12.20;99.90;;;;;;5061708;28;20041;-58
2022/10/29 02:35:03;;;;;;;19.83;10.15;;;12.30;99.90;;;;;;5061079;28;20045;-58
2022/10/29 02:37:29;;;;;;;19.65;9.57;;;12.20;99.90;;;;;;5060437;28;20125;-58
2022/10/29 02:39:55;;;;;;;22.63;9.55;;;12.20;99.90;;;;;;5059488;28;20054;-58
2022/10/29 02:42:21;;;;;;;24.10;10.02;;;12.20;99.90;;;;;;5042934;28;20131;-59
2022/10/29 02:44:46;;;;;;;24.65;10.18;;;12.10;99.90;;;;;;5060098;28;20066;-58
2022/10/29 02:47:12;;;;;;;24.15;11.38;;;12.00;99.90;;;;;;5059342;28;20768;-58
2022/10/29 02:49:37;;;;;;;20.73;10.25;;;12.00;99.90;;;;;;5061522;28;20080;-58
2022/10/29 02:52:03;;;;;;;23.27;10.80;;;12.00;99.90;;;;;;5058440;28;20040;-57
2022/10/29 02:54:29;;;;;;;26.38;9.98;;;11.90;99.90;;;;;;5057880;28;20063;-57
2022/10/29 02:56:54;;;;;;;20.35;10.00;;;11.90;99.90;;;;;;5058440;28;20272;-57
2022/10/29 02:59:20;;;;;;;28.50;10.95;;;11.90;99.90;;;;;;5059944;28;20036;-56
2022/10/29 03:01:45;;;;;;;24.60;10.07;;;11.90;99.90;;;;;;5060114;28;20505;-57
2022/10/29 03:04:11;;;;;;;22.13;9.85;;;11.80;99.90;;;;;;5059617;28;20052;-58
2022/10/29 03:06:37;;;;;;;19.40;9.35;;;11.80;99.90;;;;;;5061088;28;20047;-58
2022/10/29 03:09:03;;;;;;;21.30;9.32;;;11.80;99.90;;;;;;5059736;28;20147;-58
2022/10/29 03:11:29;;;;;;;19.33;10.32;;;11.80;99.90;;;;;;5058876;28;20174;-58
2022/10/29 03:13:55;;;;;;;19.30;9.75;;;11.80;99.90;;;;;;5059634;28;20037;-59
2022/10/29 03:16:20;;;;;;;22.88;9.60;;;11.90;99.90;;;;;;5060906;28;20452;-58
2022/10/29 03:18:46;;;;;;;26.27;11.60;;;11.90;99.90;;;;;;5066730;28;20051;-59
2022/10/29 03:21:11;;;;;;;20.65;10.15;;;11.90;99.90;;;;;;5042422;28;20044;-58
2022/10/29 03:23:37;;;;;;;23.52;10.68;;;11.80;99.90;;;;;;5064094;28;20397;-57
2022/10/29 03:26:03;;;;;;;18.48;9.18;;;11.80;99.90;;;;;;5062606;28;20037;-57
2022/10/29 03:28:29;;;;;;;20.17;9.02;;;11.80;99.90;;;;;;5060057;28;20037;-59
2022/10/29 03:30:56;;;;;;;24.70;11.50;;;11.80;99.90;;;;;;5060669;28;20043;-58
2022/10/29 03:33:24;;;;;;;19.50;9.90;;;11.80;99.90;;;;;;5065467;28;20138;-58
2022/10/29 03:36:04;;;;;;;17.65;10.27;;;11.80;99.90;;;;;;5065766;28;20147;-57
2022/10/29 03:38:30;;;;;;;19.45;8.73;;;11.70;99.90;;;;;;5068345;28;20059;-58
2022/10/29 03:40:56;;;;;;;23.85;11.00;;;11.80;99.90;;;;;;5066584;28;20486;-58
2022/10/29 03:43:22;;;;;;;25.77;12.60;;;11.80;99.90;;;;;;5065391;28;20037;-58
2022/10/29 03:45:52;;;;;;;23.83;11.95;;;11.80;99.90;;;;;;5065674;28;20052;-58
2022/10/29 03:48:18;;;;;;;23.58;11.13;;;11.80;99.90;;;;;;5069790;28;20094;-59
2022/10/29 03:50:44;;;;;;;24.63;10.40;;;11.80;99.90;;;;;;5064709;28;20041;-58
2022/10/29 03:53:10;;;;;;;22.48;10.27;;;11.80;99.90;;;;;;5047243;28;20066;-58
2022/10/29 03:55:35;;;;;;;26.65;12.52;;;11.90;99.90;;;;;;5066673;28;20040;-58
2022/10/29 03:58:01;;;;;;;27.10;12.52;;;12.00;99.90;;;;;;5048682;28;20044;-58
2022/10/29 04:00:27;;;;;;;31.90;13.70;;;12.00;99.90;;;;;;5044279;28;20044;-57
2022/10/29 04:02:52;;;;;;;26.13;12.15;;;11.90;99.90;;;;;;5064547;28;20045;-59
2022/10/29 04:05:18;;;;;;;32.53;13.52;;;12.00;99.90;;;;;;5064829;28;20049;-58
2022/10/29 04:07:43;;;;;;;24.30;12.15;;;12.00;99.90;;;;;;5064023;28;20052;-58
2022/10/29 04:10:09;;;;;;;29.80;12.35;;;11.90;99.90;;;;;;5071576;28;20350;-58
2022/10/29 04:12:35;;;;;;;30.92;14.65;;;11.90;99.90;;;;;;5065359;28;20389;-58
2022/10/29 04:15:00;;;;;;;25.23;12.32;;;11.80;99.90;;;;;;5068225;28;20567;-59
2022/10/29 04:17:26;;;;;;;28.60;12.18;;;11.80;99.90;;;;;;5059375;28;20119;-59
2022/10/29 04:19:51;;;;;;;29.27;13.50;;;11.70;99.90;;;;;;5066411;28;20385;-59
2022/10/29 04:22:17;;;;;;;22.45;12.27;;;11.80;99.90;;;;;;5061951;28;20692;-58
2022/10/29 04:24:43;;;;;;;23.25;14.02;;;11.80;99.90;;;;;;5063685;28;20462;-59
2022/10/29 04:27:08;;;;;;;28.45;14.50;;;11.70;99.90;;;;;;5061369;28;20052;-57
2022/10/29 04:29:34;;;;;;;25.95;14.07;;;11.80;99.90;;;;;;5059900;28;20359;-58
2022/10/29 04:31:59;;;;;;;28.38;14.57;;;11.80;99.90;;;;;;5062079;28;20036;-59
2022/10/29 04:34:25;;;;;;;29.15;14.90;;;11.90;99.90;;;;;;5061718;28;20530;-58
2022/10/29 04:36:52;;;;;;;30.55;15.20;;;11.90;99.90;;;;;;5061659;28;20500;-58
2022/10/29 04:39:18;;;;;;;31.57;14.50;;;11.90;99.90;;;;;;5060750;28;20059;-58
2022/10/29 04:41:45;;;;;;;30.70;16.77;;;12.00;99.90;;;;;;5064583;28;20036;-59
2022/10/29 04:44:11;;;;;;;35.78;15.50;;;11.90;99.90;;;;;;5067808;28;20421;-59
2022/10/29 04:46:36;;;;;;;38.70;17.15;;;12.00;99.90;;;;;;5049078;28;20049;-59
2022/10/29 04:49:02;;;;;;;34.85;15.57;;;11.90;99.90;;;;;;5062436;28;20048;-58
2022/10/29 04:51:28;;;;;;;30.35;15.50;;;12.00;99.90;;;;;;5064276;28;20037;-59
2022/10/29 04:53:53;;;;;;;26.83;14.43;;;12.00;99.90;;;;;;5062377;28;20100;-59
2022/10/29 04:56:19;;;;;;;28.67;15.18;;;11.80;99.90;;;;;;5063262;28;20033;-60
2022/10/29 04:58:44;;;;;;;36.78;16.33;;;11.80;99.90;;;;;;5059977;28;20060;-58
2022/10/29 05:01:10;;;;;;;47.28;17.98;;;11.80;99.90;;;;;;5060333;28;20045;-58
2022/10/29 05:03:36;;;;;;;28.65;15.65;;;11.80;99.90;;;;;;5060270;28;20492;-59
2022/10/29 05:06:05;;;;;;;33.38;16.20;;;11.80;99.90;;;;;;5061593;28;20107;-59
2022/10/29 05:08:31;;;;;;;29.85;16.98;;;11.70;99.90;;;;;;5064712;28;20503;-58
2022/10/29 05:11:01;;;;;;;20.30;13.50;;;11.70;99.90;;;;;;5062500;28;20033;-57
2022/10/29 05:13:26;;;;;;;23.17;15.23;;;11.60;99.90;;;;;;5027134;28;20093;-59
2022/10/29 05:15:52;;;;;;;27.27;15.95;;;11.60;99.90;;;;;;5062351;28;20040;-58
2022/10/29 05:18:17;;;;;;;32.40;16.65;;;11.70;99.90;;;;;;5060437;28;20037;-58
2022/10/29 05:20:43;;;;;;;29.40;16.50;;;11.60;99.90;;;;;;5062447;28;20370;-57
2022/10/29 05:23:10;;;;;;;27.80;15.90;;;11.70;99.90;;;;;;5065280;28;20036;-59
2022/10/29 05:25:38;;;;;;;27.50;16.88;;;11.70;99.90;;;;;;5043942;28;20033;-58
2022/10/29 05:28:05;;;;;;;;;;;11.70;99.90;;;;;;5060823;28;20048;-59
2022/10/29 05:30:32;;;;;;;31.20;18.20;;;11.90;99.90;;;;;;5062838;28;20793;-58
2022/10/29 05:32:57;;;;;;;31.67;18.77;;;11.90;99.90;;;;;;5061223;28;20040;-59
2022/10/29 05:35:23;;;;;;;26.15;16.27;;;11.90;99.90;;;;;;5061745;28;21974;-59
2022/10/29 05:37:53;;;;;;;24.75;16.13;;;11.90;99.90;;;;;;5063336;28;20044;-59
2022/10/29 05:40:23;;;;;;;27.45;16.58;;;12.00;99.90;;;;;;5063543;28;20070;-57
2022/10/29 05:42:49;;;;;;;26.67;16.60;;;12.00;99.90;;;;;;5064067;28;20039;-58
2022/10/29 05:45:15;;;;;;;24.83;17.00;;;12.00;99.90;;;;;;5060069;28;20131;-59
2022/10/29 05:47:41;;;;;;;26.77;17.10;;;12.00;99.90;;;;;;5043730;28;20137;-59
2022/10/29 05:50:07;;;;;;;34.05;20.00;;;12.00;99.90;;;;;;5061018;28;20044;-59
2022/10/29 05:52:33;;;;;;;28.73;18.75;;;12.10;99.90;;;;;;5060648;28;20037;-59
2022/10/29 05:54:58;;;;;;;26.55;16.75;;;12.10;99.90;;;;;;5060494;28;20047;-59
2022/10/29 05:57:24;;;;;;;26.33;18.17;;;12.10;99.90;;;;;;5041256;28;20466;-59
2022/10/29 05:59:50;;;;;;;25.83;18.40;;;12.00;99.90;;;;;;5042280;28;20059;-58
2022/10/29 06:02:15;;;;;;;23.92;16.92;;;12.10;99.90;;;;;;5060504;28;20158;-59
2022/10/29 06:04:41;;;;;;;26.23;16.55;;;12.10;99.90;;;;;;5059676;28;21456;-58
2022/10/29 06:07:06;;;;;;;29.05;18.02;;;12.10;99.90;;;;;;5062141;28;20389;-58
2022/10/29 06:09:32;;;;;;;26.98;17.33;;;12.00;99.90;;;;;;5061860;28;20123;-59
2022/10/29 06:11:58;;;;;;;27.17;17.83;;;12.00;99.90;;;;;;5044468;28;20048;-57
2022/10/29 06:14:23;;;;;;;22.73;16.27;;;12.00;99.90;;;;;;5062526;28;20039;-60
2022/10/29 06:16:49;;;;;;;25.98;17.48;;;12.10;99.90;;;;;;5063105;28;20040;-59
2022/10/29 06:19:15;;;;;;;18.42;14.38;;;12.10;99.90;;;;;;5063014;28;20036;-59
2022/10/29 06:21:40;;;;;;;23.90;15.68;;;12.10;99.90;;;;;;5061060;28;20497;-58
2022/10/29 06:24:06;;;;;;;22.13;16.25;;;12.00;99.90;;;;;;5061416;28;20068;-58
2022/10/29 06:26:32;;;;;;;21.27;16.00;;;12.00;99.90;;;;;;5060039;28;20036;-59
2022/10/29 06:28:59;;;;;;;30.60;19.08;;;12.10;99.90;;;;;;5063410;28;20036;-58
2022/10/29 06:31:24;;;;;;;37.25;20.25;;;12.20;99.90;;;;;;5060430;28;20044;-59
2022/10/29 06:33:50;;;;;;;32.50;19.38;;;12.10;99.90;;;;;;5061305;28;20045;-56
2022/10/29 06:36:16;;;;;;;33.88;21.17;;;12.10;99.90;;;;;;5063388;28;20302;-57
2022/10/29 06:38:41;;;;;;;30.25;19.52;;;12.20;99.90;;;;;;5063015;28;20049;-59
2022/10/29 06:41:08;;;;;;;30.83;19.60;;;;;;;;;;5064477;28;20064;-59
2022/10/29 06:43:34;;;;;;;27.75;19.27;;;12.20;99.90;;;;;;5063102;28;20083;-59
2022/10/29 06:46:00;;;;;;;25.55;18.45;;;;;;;;;;5059590;28;20492;-59
2022/10/29 06:48:25;;;;;;;28.30;18.10;;;12.30;99.90;;;;;;5059952;28;20040;-59
2022/10/29 06:50:51;;;;;;;25.63;18.05;;;12.30;99.90;;;;;;5059937;28;20481;-59
2022/10/29 06:53:17;;;;;;;34.75;20.98;;;12.20;99.90;;;;;;5061245;28;20060;-59
2022/10/29 06:55:43;;;;;;;35.25;20.08;;;12.30;99.90;;;;;;5066701;28;20115;-60
2022/10/29 06:58:14;;;;;;;30.50;19.70;;;12.40;99.90;;;;;;5053001;28;20123;-59
2022/10/29 07:00:41;;;;;;;31.95;19.98;;;12.40;99.90;;;;;;5066376;28;20041;-59
2022/10/29 07:03:10;;;;;;;30.45;19.05;;;12.40;99.90;;;;;;5070311;28;20105;-57
2022/10/29 07:05:36;;;;;;;31.02;19.88;;;12.50;99.90;;;;;;5065836;28;20049;-59
2022/10/29 07:08:01;;;;;;;34.80;19.92;;;12.50;99.90;;;;;;5066527;28;20070;-59
2022/10/29 07:10:29;;;;;;;30.58;20.35;;;12.50;99.90;;;;;;5046105;28;20040;-59
2022/10/29 07:12:55;;;;;;;28.20;18.35;;;12.60;99.90;;;;;;5063668;28;20080;-59
2022/10/29 07:15:21;;;;;;;29.02;18.58;;;;;;;;;;5047096;28;20075;-57
2022/10/29 07:18:14;;;;;;;28.90;18.92;;;12.60;99.90;;;;;;5045075;28;20432;-56
2022/10/29 07:20:42;;;;;;;31.77;18.58;;;12.70;99.90;;;;;;5057961;28;20059;-59
2022/10/29 07:23:09;;;;;;;33.35;18.75;;;12.70;99.90;;;;;;5064601;28;20033;-59
2022/10/29 07:25:36;;;;;;;28.40;18.48;;;12.70;99.90;;;;;;5062063;28;20137;-59
2022/10/29 07:28:04;;;;;;;30.10;17.48;;;12.70;99.90;;;;;;5062665;28;20036;-60
2022/10/29 07:30:30;;;;;;;27.30;16.92;;;12.90;99.90;;;;;;5062703;28;20033;-59
2022/10/29 07:32:55;;;;;;;31.63;17.25;;;12.90;99.90;;;;;;5063325;28;20040;-56
2022/10/29 07:35:21;;;;;;;28.52;16.35;;;12.90;99.90;;;;;;5061822;28;20183;-60
2022/10/29 07:37:46;;;;;;;30.40;17.73;;;12.90;99.90;;;;;;5063881;28;20033;-60
2022/10/29 07:40:12;;;;;;;33.20;17.20;;;13.00;99.90;;;;;;5062908;28;20401;-59
2022/10/29 07:42:38;;;;;;;33.28;16.77;;;13.00;99.90;;;;;;5063746;28;20064;-60
2022/10/29 07:45:04;;;;;;;24.92;15.57;;;13.10;99.90;;;;;;5064380;28;20460;-58
2022/10/29 07:47:29;;;;;;;27.90;16.08;;;13.10;99.90;;;;;;5068096;28;21601;-59
2022/10/29 07:49:55;;;;;;;30.67;15.63;;;13.20;99.90;;;;;;5068182;28;20040;-60
2022/10/29 07:52:20;;;;;;;28.50;14.95;;;13.20;99.90;;;;;;5066440;28;20033;-57
2022/10/29 07:54:46;;;;;;;31.25;14.95;;;13.20;99.90;;;;;;5068935;28;20481;-59
2022/10/29 07:57:11;;;;;;;24.40;14.48;;;13.40;99.90;;;;;;5067072;28;20047;-59
2022/10/29 07:59:37;;;;;;;32.08;14.38;;;13.40;99.90;;;;;;5063460;28;20051;-59
2022/10/29 08:02:02;;;;;;;24.67;13.63;;;13.60;99.90;;;;;;5065166;28;20500;-60
2022/10/29 08:04:28;;;;;;;26.05;13.75;;;13.60;99.90;;;;;;5064683;28;20052;-60
2022/10/29 08:06:54;;;;;;;32.25;14.40;;;13.70;99.90;;;;;;5064563;28;20051;-59
2022/10/29 08:09:19;;;;;;;19.50;14.07;;;13.80;99.90;;;;;;5066045;28;20040;-59
2022/10/29 08:11:45;;;;;;;24.45;14.05;;;13.90;99.90;;;;;;5062718;28;20040;-59
2022/10/29 08:14:11;;;;;;;25.75;15.18;;;14.00;99.90;;;;;;5047777;28;20040;-57
2022/10/29 08:16:37;;;;;;;22.73;14.52;;;14.10;99.90;;;;;;5064352;28;20072;-59
2022/10/29 08:19:02;;;;;;;22.35;13.35;;;14.10;99.90;;;;;;5047275;28;20072;-58
2022/10/29 08:21:28;;;;;;;23.83;14.30;;;14.20;99.90;;;;;;5067481;28;20044;-58
2022/10/29 08:23:55;;;;;;;24.38;13.63;;;14.30;99.90;;;;;;5068420;28;20362;-59
2022/10/29 08:26:20;;;;;;;21.55;13.93;;;14.30;99.90;;;;;;5048221;28;20538;-59
2022/10/29 08:28:46;;;;;;;30.30;15.10;;;14.40;99.90;;;;;;5066946;28;20127;-59
2022/10/29 08:31:12;;;;;;;27.00;15.20;;;14.40;99.90;;;;;;5068611;28;20127;-59
2022/10/29 08:33:37;;;;;;;24.00;14.05;;;14.50;99.90;;;;;;5062161;28;20110;-60
2022/10/29 08:36:03;;;;;;;23.35;15.38;;;14.60;99.90;;;;;;5062281;28;20041;-61
2022/10/29 08:38:29;;;;;;;23.08;15.35;;;14.60;99.90;;;;;;5066368;28;20045;-60
2022/10/29 08:41:16;;;;;;;24.58;14.60;;;14.60;99.90;;;;;;5061913;28;20045;-60
2022/10/29 08:44:01;;;;;;;29.50;15.88;;;14.70;99.90;;;;;;5069483;28;20048;-60
2022/10/29 08:46:42;;;;;;;29.23;16.20;;;14.70;99.90;;;;;;5071282;28;20055;-59
2022/10/29 08:49:17;;;;;;;27.60;16.05;;;14.80;99.90;;;;;;5071553;28;20048;-60
2022/10/29 08:51:53;;;;;;;26.02;16.45;;;14.90;99.90;;;;;;5070081;28;20033;-60
2022/10/29 08:54:21;;;;;;;24.83;15.50;;;14.90;99.90;;;;;;5066790;28;20052;-60
2022/10/29 08:56:52;;;;;;;35.67;17.08;;;14.90;99.90;;;;;;5072146;28;20120;-60
2022/10/29 08:59:23;;;;;;;26.48;16.15;;;15.10;99.90;;;;;;5070929;28;20032;-56
2022/10/29 09:01:51;;;;;;;22.40;16.05;;;15.20;99.90;;;;;;5072038;28;20044;-59
2022/10/29 09:04:24;;;;;;;29.30;15.90;;;15.40;99.90;;;;;;5071875;28;20557;-55
2022/10/29 09:07:01;;;;;;;23.83;16.10;;;15.40;99.90;;;;;;5063447;28;20511;-58
2022/10/29 09:09:45;;;;;;;25.08;16.00;;;15.50;99.90;;;;;;5069928;28;20405;-58
2022/10/29 09:12:29;;;;;;;25.75;15.80;;;15.50;99.90;;;;;;5066254;28;20509;-59
2022/10/29 09:15:14;;;;;;;24.85;15.98;;;15.60;99.90;;;;;;5052232;28;20421;-59
2022/10/29 09:17:58;;;;;;;25.88;16.20;;;15.70;99.90;;;;;;5050345;28;20052;-58
2022/10/29 09:20:48;;;;;;;25.30;15.18;;;15.90;99.90;;;;;;5068593;28;20040;-58
2022/10/29 09:23:25;;;;;;;25.95;15.07;;;16.00;99.90;;;;;;5065332;28;20050;-58
2022/10/29 09:26:16;;;;;;;26.38;14.05;;;16.30;99.90;;;;;;5051953;28;20040;-59
2022/10/29 09:29:20;;;;;;;25.40;13.48;;;16.50;99.90;;;;;;5053777;28;20055;-60
2022/10/29 09:31:57;;;;;;;22.67;14.85;;;16.50;99.90;;;;;;5067945;28;20047;-61
2022/10/29 09:34:41;;;;;;;21.65;14.00;;;16.60;99.90;;;;;;5070057;28;20052;-61
2022/10/29 09:37:20;;;;;;;21.45;13.82;;;16.70;99.90;;;;;;5068850;28;20040;-62
2022/10/29 09:39:46;;;;;;;20.88;14.15;;;16.80;99.90;;;;;;5067475;28;20093;-61
2022/10/29 09:42:35;;;;;;;27.10;13.82;;;16.90;99.90;;;;;;5064107;28;20041;-61
2022/10/29 09:45:04;;;;;;;20.50;14.23;;;17.10;99.90;;;;;;5067905;28;20044;-60
2022/10/29 09:47:48;;;;;;;21.60;13.80;;;17.10;99.90;;;;;;5067734;28;20036;-61
2022/10/29 09:50:13;;;;;;;25.38;15.07;;;17.10;99.90;;;;;;5071346;28;20056;-61
2022/10/29 09:52:41;;;;;;;23.48;14.75;;;17.20;99.90;;;;;;5067304;28;20157;-61
2022/10/29 09:55:09;;;;;;;;;;;17.20;99.90;;;;;;5066386;28;20043;-59
2022/10/29 09:57:37;;;;;;;23.98;15.45;;;17.20;99.90;;;;;;5065563;28;19964;-60
2022/10/29 10:00:16;;;;;;;24.60;15.23;;;17.20;99.90;;;;;;5067148;28;20036;-61
2022/10/29 10:02:43;;;;;;;23.90;15.25;;;17.30;99.90;;;;;;5066173;28;20499;-60
2022/10/29 10:05:18;;;;;;;;;;;17.40;99.90;;;;;;5069512;28;20048;-62
2022/10/29 10:08:13;;;;;;;23.63;15.13;;;17.50;99.90;;;;;;5067398;28;19924;-60
2022/10/29 10:10:53;;;;;;;24.83;16.20;;;17.60;99.90;;;;;;5046170;28;20040;-59
2022/10/29 10:13:22;;;;;;;26.17;15.35;;;17.60;99.90;;;;;;5064777;28;20106;-59
2022/10/29 10:15:56;;;;;;;25.88;15.88;;;17.70;99.90;;;;;;5065311;28;21156;-60
2022/10/29 10:18:41;;;;;;;26.50;16.42;;;17.70;99.90;;;;;;5063982;28;20048;-59
2022/10/29 10:21:11;;;;;;;33.80;16.67;;;17.80;99.90;;;;;;5064148;28;20033;-59
2022/10/29 10:23:44;;;;;;;27.95;15.48;;;17.80;99.90;;;;;;5067378;28;20044;-60
2022/10/29 10:26:30;;;;;;;26.75;15.38;;;18.20;99.90;;;;;;5066656;28;20063;-59
2022/10/29 10:29:14;;;;;;;22.27;15.40;;;18.30;99.90;;;;;;5062522;28;20052;-59
2022/10/29 10:31:42;;;;;;;22.55;14.63;;;18.30;99.90;;;;;;5066099;28;20040;-60
2022/10/29 10:34:20;;;;;;;27.30;15.43;;;18.40;99.90;;;;;;5059744;28;20037;-60
2022/10/29 10:37:15;;;;;;;25.00;15.00;;;18.30;99.90;;;;;;5068643;28;20070;-58
2022/10/29 10:39:53;;;;;;;24.05;15.30;;;18.40;99.90;;;;;;5065551;28;20041;-58
2022/10/29 10:42:24;;;;;;;26.15;15.30;;;18.50;99.90;;;;;;5062026;28;20068;-60
2022/10/29 10:44:58;;;;;;;24.95;14.15;;;18.60;99.90;;;;;;5058399;28;20052;-59
2022/10/29 10:47:27;;;;;;;22.00;13.77;;;18.70;99.90;;;;;;5066492;28;21898;-60
2022/10/29 10:50:08;;;;;;;26.13;13.50;;;18.70;99.90;;;;;;5080510;28;20044;-59
2022/10/29 10:52:34;;;;;;;30.77;14.45;;;18.80;99.90;;;;;;5083215;28;20448;-59
2022/10/29 10:55:05;;;;;;;23.15;13.45;;;18.70;99.90;;;;;;5086680;28;20105;-58
2022/10/29 10:57:50;;;;;;;20.23;14.23;;;18.70;99.90;;;;;;5075027;28;20048;-57
2022/10/29 11:00:19;;;;;;;23.13;14.32;;;18.70;99.90;;;;;;5078431;28;20098;-57
2022/10/29 11:03:00;;;;;;;21.20;13.98;;;18.50;99.90;;;;;;5074904;28;20458;-59
2022/10/29 11:05:36;;;;;;;22.80;14.25;;;18.50;99.90;;;;;;5064104;28;20049;-59
2022/10/29 11:08:20;;;;;;;26.40;14.65;;;18.50;99.90;;;;;;5079235;28;20045;-59
2022/10/29 11:10:55;;;;;;;22.73;14.95;;;18.40;99.90;;;;;;5092146;28;20043;-61
2022/10/29 11:13:24;;;;;;;20.13;14.07;;;18.40;99.90;;;;;;5075498;28;20481;-60
2022/10/29 11:16:19;;;;;;;24.67;14.73;;;18.40;99.90;;;;;;5074008;28;20165;-59
2022/10/29 11:19:00;;;;;;;23.00;13.85;;;18.40;99.90;;;;;;5075230;28;20070;-59
2022/10/29 11:21:39;;;;;;;29.85;14.93;;;18.50;99.90;;;;;;5065284;28;20080;-61
2022/10/29 11:24:47;;;;;;;23.83;14.73;;;18.50;99.90;;;;;;5077977;28;20044;-60
2022/10/29 11:27:44;;;;;;;22.42;14.13;;;18.60;99.90;;;;;;5059278;28;20134;-59
2022/10/29 11:30:11;;;;;;;;;;;18.60;99.90;;;;;;5079036;28;20045;-60
2022/10/29 11:32:55;;;;;;;23.17;13.63;;;18.60;99.90;;;;;;5076690;28;19958;-59
2022/10/29 11:35:45;;;;;;;23.17;14.63;;;18.70;99.90;;;;;;5075851;28;20052;-60
2022/10/29 11:38:45;;;;;;;21.85;14.00;;;18.70;99.90;;;;;;5074014;28;20037;-60
2022/10/29 11:41:44;;;;;;;25.83;13.73;;;18.70;99.90;;;;;;5077949;28;20042;-61
2022/10/29 11:44:12;;;;;;;21.77;14.57;;;18.70;99.90;;;;;;5072366;28;20045;-61
2022/10/29 11:47:08;;;;;;;23.67;14.35;;;18.70;99.90;;;;;;5078390;28;20111;-60
2022/10/29 11:49:40;;;;;;;24.40;13.82;;;18.80;99.90;;;;;;5088048;28;20048;-60
2022/10/29 11:52:13;;;;;;;22.05;13.80;;;19.00;99.90;;;;;;5074663;28;20059;-60
2022/10/29 11:54:53;;;;;;;19.35;14.02;;;19.00;99.90;;;;;;5078661;28;20076;-59
2022/10/29 11:57:31;;;;;;;20.52;13.93;;;19.00;99.90;;;;;;5084361;28;20044;-60
2022/10/29 12:00:11;;;;;;;25.73;14.98;;;19.10;99.90;;;;;;5076405;28;20485;-59
2022/10/29 12:03:11;;;;;;;25.35;13.90;;;19.20;99.90;;;;;;5063491;28;20037;-60
2022/10/29 12:06:05;;;;;;;25.02;14.40;;;19.20;99.90;;;;;;5075274;28;20066;-60
2022/10/29 12:09:05;;;;;;;22.70;14.30;;;19.20;99.90;;;;;;5080568;28;20044;-59
2022/10/29 12:11:36;;;;;;;23.40;14.18;;;19.20;99.90;;;;;;5090127;28;20114;-59
2022/10/29 12:14:09;;;;;;;23.60;14.10;;;19.20;99.90;;;;;;5088886;28;20040;-59
2022/10/29 12:16:53;;;;;;;26.52;15.30;;;19.20;99.90;;;;;;5068427;28;20047;-60
2022/10/29 12:19:45;;;;;;;21.08;14.50;;;19.10;99.90;;;;;;5065948;28;20497;-58
2022/10/29 12:22:36;;;;;;;22.52;14.43;;;19.20;99.90;;;;;;5080245;28;20032;-60
2022/10/29 12:25:24;;;;;;;23.50;14.30;;;19.20;99.90;;;;;;5084192;28;20055;-61
2022/10/29 12:28:17;;;;;;;24.70;15.55;;;19.30;99.90;;;;;;5088384;28;20477;-60
2022/10/29 12:31:17;;;;;;;25.98;15.45;;;19.30;99.90;;;;;;5074914;28;20048;-61
2022/10/29 12:33:50;;;;;;;24.83;14.77;;;19.30;99.90;;;;;;5077360;28;20045;-60
2022/10/29 12:36:47;;;;;;;22.20;14.85;;;19.30;99.90;;;;;;5087266;28;20040;-60
2022/10/29 12:39:33;;;;;;;25.15;14.95;;;19.30;99.90;;;;;;5071288;28;20079;-60
2022/10/29 12:42:10;;;;;;;52.50;16.25;;;19.40;99.90;;;;;;5072743;28;20052;-60
2022/10/29 12:44:58;;;;;;;24.88;14.63;;;19.40;99.90;;;;;;5085004;28;20447;-60
2022/10/29 12:47:29;;;;;;;29.80;15.63;;;19.50;99.90;;;;;;5081071;28;20044;-60
2022/10/29 12:50:22;;;;;;;28.63;15.38;;;19.60;99.90;;;;;;5086266;28;20401;-59
2022/10/29 12:53:08;;;;;;;22.98;14.88;;;19.80;99.90;;;;;;5072856;28;20048;-61
2022/10/29 12:55:35;;;;;;;25.30;14.88;;;20.00;99.90;;;;;;5037222;28;20055;-60
2022/10/29 12:58:40;;;;;;;25.88;15.50;;;20.10;99.90;;;;;;5082824;28;20374;-59